LiveATC.Net - Listen to live air traffic control over the Internet!


ICAO: KACT  IATA: ACT   Airport: Waco Regional Airport
City: Waco   State/Province: Texas
Country: United States   Continent: North America
KACT METAR Weather: KACT 241151Z AUTO 21005KT 10SM CLR M02/M06 A3008 RMK AO2 SLP188 T10221056 10000 21033 58003 $
KACT Flight Activity (FlightAware)
KACT Airport Info   (AirNav) (iFlightPlanner)
KACT VFR Sectional Chart   (iFlightPlanner) 
KACT IFR Low Chart   (iFlightPlanner) 

KACT Gnd/Twr/Ops
Feed Status: UP   Listeners: 0
Listen in your browser - HTML5 player (in browser, HTML5)
Click here to listen with your own player (launches your MP3 player)
KACT Gnd/Twr/Ops Audio Archives
FacilityFrequency
Waco Ground121.900
Waco Tower119.300

NOTICE

Unauthorized use prohibited. See LiveATC.net Terms of Service


Find LiveATC Audio Streams


Airport/ARTCC Code

Frequency Search
(e.g., 124.400, 128.75)
Site-wide search
 


Browse LiveATC Feeds
Top 50 LiveATC Feeds
LiveATC Feed Map
Bad Weather Areas

LiveATC FAQ
Offer LiveATC feed
Contact LiveATC.net
Press Inquiries

LiveATC on iPhone
LiveATC on Android

Windows Phone
Windows 8/10

LiveATC Mobile
(Mobile browser)

ATC Audio Archives
Interesting Recordings

LiveATC Forums


Home Page
About LiveATC.net
Make a Donation
Terms of Use
Privacy Policy

Canadian Air Freqs

AIRMETs/SIGMETs

FAA Airport Status
Nat'l Airspace Status
Arrival Demand Charts


Server Software By:
Icecast.org
Liquidsoap